CDT,Max TemperatureF,Mean TemperatureF,Min TemperatureF,Max Dew PointF,MeanDew PointF,Min DewpointF,Max Humidity, Mean Humidity, Min Humidity, Max Sea Level PressureIn, Mean Sea Level PressureIn, Min Sea Level PressureIn, Max VisibilityMiles, Mean VisibilityMiles, Min VisibilityMiles, Max Wind SpeedMPH, Mean Wind SpeedMPH, Max Gust SpeedMPH,PrecipitationIn, CloudCover, Events, WindDirDegrees
2013-3-1,31,26,21,22,20,18,92,81,69,30.41,30.33,30.24,10,10,10,15,5,18,0.00,6,,141
2013-3-2,49,36,22,32,25,18,92,71,50,30.29,30.10,29.95,10,10,10,17,8,21,0.00,3,,140
2013-3-3,40,34,28,31,29,26,92,78,64,29.94,29.73,29.58,10,8,3,20,11,23,0.01,5,,121
2013-3-4,34,28,22,30,23,17,100,78,56,30.03,29.76,29.62,10,4,0,36,17,45,0.06,7,Fog-Snow,295
2013-3-5,25,20,15,18,13,10,84,73,62,30.44,30.30,29.97,10,9,2,31,16,40,0.01,7,Snow,350
2013-3-6,25,17,8,17,11,4,91,76,60,30.43,30.28,30.04,10,10,2,26,13,32,T,2,Snow,118
2013-3-7,38,30,21,27,22,16,92,78,64,30.20,30.05,29.94,10,9,4,23,11,29,0.00,3,,119
2013-3-8,40,30,20,28,25,20,96,78,59,30.20,30.10,29.96,10,7,4,17,7,20,0.00,3,,85
2013-3-9,37,29,20,27,24,13,100,82,64,30.14,29.90,29.80,10,5,1,24,14,32,0.00,7,,357
2013-3-10,31,22,13,13,11,9,88,68,47,30.30,30.20,30.10,10,9,4,25,12,33,T,2,Snow,3
2013-3-11,46,29,11,27,16,9,84,59,33,30.11,29.94,29.83,10,10,10,36,16,44,0.00,2,,300
2013-3-12,32,21,10,18,13,6,83,61,39,30.37,30.20,29.96,10,10,9,32,18,41,T,6,Snow,333
2013-3-13,48,30,12,28,17,8,84,59,34,30.35,30.20,30.01,10,10,10,22,12,26,0.00,2,,150
2013-3-14,71,50,29,35,31,26,85,54,22,30.12,30.02,29.94,10,10,10,21,7,29,0.00,2,,330
2013-3-15,38,27,15,33,21,12,92,84,75,30.13,29.96,29.87,10,9,6,20,10,28,T,8,,36
2013-3-16,27,16,6,16,9,2,86,74,51,30.27,30.18,30.08,10,6,1,16,9,,0.05,5,Snow,40
2013-3-17,36,24,12,31,19,7,92,84,75,30.18,29.71,29.40,10,7,1,39,20,49,0.09,8,Snow,145
2013-3-18,23,15,6,11,4,-2,88,71,54,30.08,29.88,29.58,10,10,7,35,20,45,T,4,Snow,320
2013-3-19,25,15,4,16,8,0,86,71,56,30.48,30.24,30.06,10,10,9,23,10,28,T,5,,359
2013-3-20,30,14,-2,12,4,-5,87,67,46,30.48,30.32,30.10,10,10,10,21,8,26,0.00,0,,107
2013-3-21,30,19,8,12,6,0,80,60,39,30.09,29.98,29.85,10,10,10,23,15,28,T,6,,113
2013-3-22,24,19,14,19,14,9,88,81,74,30.13,29.97,29.90,10,4,1,16,9,22,0.13,8,Snow,111
2013-3-23,27,17,7,20,15,8,92,75,57,30.28,30.16,30.05,10,7,1,21,11,25,0.03,7,Snow,319
2013-3-24,28,17,6,21,13,3,83,76,68,30.34,30.21,30.12,10,7,1,20,12,24,T,7,Snow,337
2013-3-25,29,21,12,14,11,7,88,71,53,30.43,30.36,30.26,10,10,6,13,9,17,T,5,,345
2013-3-26,34,21,7,18,12,4,88,68,47,30.37,30.26,30.19,10,10,10,21,11,25,0.00,0,,117
2013-3-27,43,28,13,27,20,11,92,73,53,30.21,30.18,30.12,10,10,6,17,6,23,0.00,1,,88
2013-3-28,57,39,20,31,25,19,92,60,27,30.18,30.15,30.11,10,8,4,18,9,21,0.00,1,,108
2013-3-29,63,44,24,37,30,23,100,67,34,30.14,30.04,29.91,10,7,2,21,7,24,0.00,1,,115
2013-3-30,60,42,24,37,30,22,96,63,30,30.05,30.00,29.95,10,7,2,26,8,37,T,1,Rain,337
2013-3-31,36,26,15,30,20,11,82,65,47,30.30,30.12,30.00,10,10,10,18,11,23,T,5,,359